createdAt,value
2019-04-22T00:02:15.868Z,35.40
2019-04-22T00:05:01.764Z,35.30
2019-04-22T00:07:44.879Z,35.20
2019-04-22T00:10:24.220Z,35.10
2019-04-22T00:12:55.723Z,35.10
2019-04-22T00:15:20.208Z,35.10
2019-04-22T00:20:39.219Z,35.00
2019-04-22T00:23:06.421Z,35.10
2019-04-22T00:25:43.903Z,35.00
2019-04-22T00:28:19.954Z,35.10
2019-04-22T00:30:40.649Z,35.30
2019-04-22T00:33:20.548Z,35.10
2019-04-22T00:35:49.434Z,35.30
2019-04-22T00:38:33.311Z,35.30
2019-04-22T00:41:00.831Z,35.80
2019-04-22T00:43:33.348Z,35.90
2019-04-22T00:46:03.985Z,35.70
2019-04-22T00:49:30.253Z,35.80
2019-04-22T00:51:15.945Z,35.90
2019-04-22T00:53:41.754Z,36.90
2019-04-22T00:56:28.316Z,37.10
2019-04-22T00:58:47.018Z,37.20
2019-04-22T01:06:33.330Z,37.80
2019-04-22T01:09:18.925Z,38.30
2019-04-22T01:11:32.340Z,38.20
2019-04-22T01:14:09.053Z,38.30
2019-04-22T01:16:46.083Z,38.20
2019-04-22T01:19:15.069Z,38.50
2019-04-22T01:21:45.092Z,38.50
2019-04-22T01:24:17.790Z,38.60
2019-04-22T01:26:52.691Z,38.70
2019-04-22T01:29:19.971Z,38.80
2019-04-22T01:31:40.587Z,39.00
2019-04-22T01:34:28.842Z,38.90
2019-04-22T01:37:03.410Z,38.80
2019-04-22T01:39:43.609Z,38.80
2019-04-22T01:42:10.828Z,38.80
2019-04-22T01:44:45.430Z,38.80
2019-04-22T01:47:25.118Z,38.90
2019-04-22T01:49:53.871Z,38.90
2019-04-22T01:52:22.044Z,38.90
2019-04-22T01:55:05.792Z,38.90
2019-04-22T01:57:31.720Z,39.00
2019-04-22T01:59:59.169Z,39.00
2019-04-22T02:02:41.731Z,39.80
2019-04-22T02:05:13.998Z,39.30
2019-04-22T02:07:41.931Z,39.40
2019-04-22T02:10:20.125Z,39.50
2019-04-22T02:12:55.414Z,39.60
2019-04-22T02:15:24.002Z,39.50
2019-04-22T02:18:03.183Z,39.40
2019-04-22T02:20:32.980Z,39.40
2019-04-22T02:26:00.921Z,39.20
2019-04-22T02:38:59.441Z,39.30
2019-04-22T02:41:31.037Z,39.30
2019-04-22T02:51:27.787Z,39.10
2019-04-22T02:59:26.184Z,39.20
2019-04-22T03:01:41.168Z,39.30
2019-04-22T03:04:24.547Z,39.30
2019-04-22T03:06:55.586Z,39.20
2019-04-22T03:09:24.138Z,39.30
2019-04-22T03:12:04.466Z,39.40
2019-04-22T03:14:40.449Z,39.40
2019-04-22T03:16:57.782Z,39.50
2019-04-22T03:19:44.314Z,39.50
2019-04-22T03:22:08.236Z,39.60
2019-04-22T03:27:07.498Z,39.60
2019-04-22T03:40:33.235Z,39.70
2019-04-22T03:42:56.080Z,39.90
2019-04-22T03:45:28.043Z,40.20
2019-04-22T03:47:57.540Z,40.30
2019-04-22T03:55:41.310Z,40.30
2019-04-22T03:57:57.204Z,40.40
2019-04-22T04:00:55.448Z,40.40
2019-04-22T04:03:15.045Z,40.60
2019-04-22T04:08:23.968Z,41.00
2019-04-22T04:10:53.405Z,40.70
2019-04-22T04:13:30.384Z,40.90
2019-04-22T04:15:55.609Z,41.00
2019-04-22T04:18:41.384Z,41.20
2019-04-22T04:21:22.815Z,41.30
2019-04-22T04:23:53.284Z,41.30
2019-04-22T04:26:23.924Z,41.30
2019-04-22T04:31:25.127Z,41.20
2019-04-22T04:36:32.196Z,41.20
2019-04-22T04:41:34.129Z,40.90
2019-04-22T04:49:19.168Z,38.90
2019-04-22T04:52:02.356Z,38.60
2019-04-22T04:54:23.778Z,38.10
2019-04-22T04:56:50.925Z,37.60
2019-04-22T04:59:28.102Z,37.20
2019-04-22T05:12:24.706Z,34.50
2019-04-22T05:14:28.699Z,33.50
2019-04-22T05:19:32.316Z,32.50
2019-04-22T05:22:14.909Z,32.20
2019-04-22T05:24:45.729Z,31.80
2019-04-22T05:27:24.694Z,31.30
2019-04-22T05:30:03.701Z,30.80
2019-04-22T05:32:17.582Z,30.70
2019-04-22T05:40:00.852Z,30.20
2019-04-22T05:42:25.377Z,29.90
2019-04-22T05:45:03.460Z,30.00
2019-04-22T05:47:32.032Z,30.10
2019-04-22T05:50:08.196Z,29.20
2019-04-22T05:52:46.726Z,29.50
2019-04-22T05:55:25.061Z,29.10
2019-04-22T05:57:51.332Z,29.00
2019-04-22T06:00:36.963Z,29.10
2019-04-22T06:03:04.063Z,29.20
2019-04-22T06:08:04.213Z,29.20
2019-04-22T06:10:45.378Z,29.10
2019-04-22T06:13:14.582Z,28.70
2019-04-22T06:15:49.150Z,28.60
2019-04-22T06:18:25.583Z,28.90
2019-04-22T06:23:34.556Z,28.50
2019-04-22T06:26:20.253Z,28.30
2019-04-22T06:28:48.224Z,28.30
2019-04-22T06:31:11.124Z,28.10
2019-04-22T06:33:43.524Z,28.10
2019-04-22T06:36:16.258Z,28.30
2019-04-22T06:38:46.746Z,28.00
2019-04-22T06:41:25.346Z,27.80
2019-04-22T06:43:56.166Z,27.80
2019-04-22T06:46:20.432Z,28.00
2019-04-22T06:48:55.207Z,27.70
2019-04-22T06:54:01.707Z,26.60
2019-04-22T06:56:27.811Z,26.10
2019-04-22T06:59:06.870Z,26.30
2019-04-22T07:01:55.138Z,25.70
2019-04-22T07:04:14.863Z,25.50
2019-04-22T07:06:48.714Z,25.50
2019-04-22T07:09:36.905Z,25.00
2019-04-22T07:11:49.705Z,25.50
2019-04-22T07:14:18.178Z,24.90
2019-04-22T07:16:56.101Z,25.30
2019-04-22T07:19:36.093Z,25.20
2019-04-22T07:22:09.576Z,25.10
2019-04-22T07:27:10.281Z,25.30
2019-04-22T07:29:51.845Z,25.00
2019-04-22T07:32:15.233Z,25.20
2019-04-22T07:37:28.457Z,24.60
2019-04-22T07:39:50.209Z,23.90
2019-04-22T07:45:03.927Z,23.30
2019-04-22T07:47:37.844Z,22.80
2019-04-22T07:50:09.764Z,23.10
2019-04-22T07:52:51.974Z,23.40
2019-04-22T07:55:05.640Z,23.30
2019-04-22T07:57:44.512Z,23.00
2019-04-22T08:00:19.058Z,22.60
2019-04-22T08:02:50.547Z,22.80
2019-04-22T08:05:24.774Z,23.10
2019-04-22T08:08:00.910Z,22.90
2019-04-22T08:10:40.330Z,23.00
2019-04-22T08:13:01.822Z,22.60
2019-04-22T08:15:43.269Z,22.90
2019-04-22T08:18:10.148Z,22.40
2019-04-22T08:20:44.090Z,22.30
2019-04-22T08:23:17.771Z,22.30
2019-04-22T08:25:49.176Z,22.60
2019-04-22T08:28:26.153Z,22.30
2019-04-22T08:33:33.418Z,21.60
2019-04-22T08:38:39.568Z,21.60
2019-04-22T08:41:23.019Z,21.70
2019-04-22T08:46:27.395Z,20.60
2019-04-22T08:48:57.664Z,20.90
2019-04-22T08:56:45.849Z,20.70
2019-04-22T08:59:07.919Z,20.70
2019-04-22T09:01:50.681Z,21.20
2019-04-22T09:04:10.024Z,21.30
2019-04-22T09:07:05.802Z,22.00
2019-04-22T09:09:22.563Z,22.50
2019-04-22T09:11:57.844Z,22.20
2019-04-22T09:14:24.296Z,21.80
2019-04-22T09:17:04.110Z,21.50
2019-04-22T09:19:32.249Z,21.50
2019-04-22T09:22:05.001Z,21.60
2019-04-22T09:24:35.778Z,21.50
2019-04-22T09:27:10.110Z,21.30
2019-04-22T09:32:32.946Z,21.70
2019-04-22T09:34:47.024Z,21.80
2019-04-22T09:37:28.649Z,21.80
2019-04-22T09:39:59.639Z,21.30
2019-04-22T09:42:31.856Z,20.90
2019-04-22T09:45:04.473Z,21.00
2019-04-22T09:47:42.554Z,20.40
2019-04-22T09:50:09.810Z,20.30
2019-04-22T09:52:40.689Z,21.50
2019-04-22T09:55:12.960Z,21.80
2019-04-22T09:57:44.922Z,22.10
2019-04-22T10:00:17.140Z,22.50
2019-04-22T10:03:00.930Z,22.30
2019-04-22T10:05:28.542Z,22.80
2019-04-22T10:07:59.398Z,23.70
2019-04-22T10:10:37.977Z,23.90
2019-04-22T10:13:12.831Z,24.00
2019-04-22T10:15:43.528Z,24.40
2019-04-22T10:18:17.858Z,24.60
2019-04-22T10:20:51.874Z,24.90
2019-04-22T10:23:19.035Z,25.10
2019-04-22T10:25:54.481Z,25.50
2019-04-22T10:28:32.362Z,25.90
2019-04-22T10:30:53.520Z,26.10
2019-04-22T10:33:25.799Z,26.10
2019-04-22T10:35:41.279Z,26.50
2019-04-22T10:38:12.735Z,26.80
2019-04-22T10:40:44.895Z,27.20
2019-04-22T10:43:17.053Z,27.50
2019-04-22T10:45:48.123Z,27.70
2019-04-22T10:48:19.395Z,28.10
2019-04-22T10:50:50.686Z,28.40
2019-04-22T10:53:23.802Z,28.60
2019-04-22T10:55:56.278Z,28.40
2019-04-22T10:58:28.828Z,28.40
2019-04-22T11:01:00.359Z,28.60
2019-04-22T11:03:33.051Z,28.50
2019-04-22T11:06:05.617Z,28.90
2019-04-22T11:08:44.500Z,28.70
2019-04-22T11:11:22.491Z,28.70
2019-04-22T11:13:44.128Z,28.20
2019-04-22T11:16:15.501Z,28.20
2019-04-22T11:18:47.578Z,28.20
2019-04-22T11:21:19.948Z,28.20
2019-04-22T11:23:52.514Z,28.30
2019-04-22T11:26:25.932Z,28.30
2019-04-22T11:28:57.084Z,28.60
2019-04-22T11:31:29.132Z,28.00
2019-04-22T11:34:02.769Z,28.20
2019-04-22T11:36:34.576Z,28.10
2019-04-22T11:39:11.130Z,27.80
2019-04-22T11:41:42.122Z,28.10
2019-04-22T11:44:15.085Z,27.70
2019-04-22T11:46:47.867Z,27.60
2019-04-22T11:49:19.603Z,27.70
2019-04-22T11:51:51.798Z,27.60
2019-04-22T11:54:23.261Z,27.00
2019-04-22T11:56:54.897Z,26.80
2019-04-22T11:59:26.827Z,26.60
2019-04-22T12:01:58.155Z,26.90
2019-04-22T12:04:30.004Z,26.70
2019-04-22T12:07:02.160Z,26.70
2019-04-22T12:09:33.514Z,26.50
2019-04-22T12:12:05.732Z,26.40
2019-04-22T12:14:38.247Z,26.70
2019-04-22T12:17:09.444Z,26.70
2019-04-22T12:19:42.053Z,26.60
2019-04-22T12:22:15.247Z,26.50
2019-04-22T12:24:48.181Z,26.60
2019-04-22T12:27:22.428Z,26.90
2019-04-22T12:29:53.635Z,26.70
2019-04-22T12:32:25.555Z,26.50
2019-04-22T12:34:57.501Z,26.50
2019-04-22T12:37:35.550Z,26.60
2019-04-22T12:40:02.675Z,27.20
2019-04-22T12:42:35.382Z,27.20
2019-04-22T12:45:08.286Z,27.40
2019-04-22T12:47:42.062Z,27.70
2019-04-22T12:50:21.539Z,27.70
2019-04-22T12:52:54.951Z,27.90
2019-04-22T12:55:21.858Z,28.00
2019-04-22T12:57:56.710Z,28.40
2019-04-22T13:00:27.499Z,28.50
2019-04-22T13:02:59.163Z,28.20
2019-04-22T13:05:31.355Z,28.10
2019-04-22T13:08:03.471Z,28.40
2019-04-22T13:10:45.631Z,27.80
2019-04-22T13:13:09.100Z,27.80
2019-04-22T13:15:41.267Z,27.20
2019-04-22T13:18:22.790Z,27.40
2019-04-22T13:20:46.391Z,27.10
2019-04-22T13:23:18.198Z,27.50
2019-04-22T13:25:49.843Z,27.60
2019-04-22T13:28:21.102Z,27.60
2019-04-22T13:30:52.894Z,27.50
2019-04-22T13:33:25.031Z,27.60
2019-04-22T13:35:57.567Z,27.70
2019-04-22T13:38:29.347Z,28.10
2019-04-22T13:41:12.459Z,28.30
2019-04-22T13:43:34.318Z,28.30
2019-04-22T13:46:06.451Z,28.10
2019-04-22T13:48:58.985Z,28.20
2019-04-22T13:52:19.176Z,28.10
2019-04-22T13:54:36.860Z,27.90
2019-04-22T13:56:40.352Z,28.10
2019-04-22T13:59:01.993Z,28.00
2019-04-22T14:01:25.611Z,27.90
2019-04-22T14:04:24.939Z,27.50
2019-04-22T14:06:56.715Z,27.70
2019-04-22T14:09:28.332Z,27.50
2019-04-22T14:12:05.297Z,27.40
2019-04-22T14:14:33.678Z,27.60
2019-04-22T14:17:07.224Z,27.70
2019-04-22T14:19:39.111Z,27.80
2019-04-22T14:22:11.744Z,28.20
2019-04-22T14:24:44.914Z,28.50
2019-04-22T14:27:27.809Z,28.60
2019-04-22T14:29:51.478Z,28.70
2019-04-22T14:32:27.576Z,28.90
2019-04-22T14:34:55.361Z,29.00
2019-04-22T14:37:27.725Z,29.20
2019-04-22T14:40:00.639Z,29.40
2019-04-22T14:42:51.784Z,29.50
2019-04-22T14:45:28.547Z,29.70
2019-04-22T14:48:07.118Z,29.90
2019-04-22T14:50:32.849Z,30.00
2019-04-22T14:53:04.081Z,30.10
2019-04-22T14:55:23.828Z,30.50
2019-04-22T14:57:52.868Z,30.50
2019-04-22T15:00:26.338Z,30.70
2019-04-22T15:02:57.587Z,31.00
2019-04-22T15:05:30.281Z,31.10
2019-04-22T15:08:03.193Z,31.00
2019-04-22T15:10:36.071Z,31.10
2019-04-22T15:13:07.412Z,31.20
2019-04-22T15:15:48.951Z,31.50
2019-04-22T15:18:46.451Z,32.70
2019-04-22T15:21:20.675Z,33.10
2019-04-22T15:23:52.884Z,33.50
2019-04-22T15:26:24.611Z,33.40
2019-04-22T15:28:57.728Z,33.40
2019-04-22T15:31:29.296Z,33.20
2019-04-22T15:34:02.525Z,33.30
2019-04-22T15:36:35.793Z,33.60
2019-04-22T15:39:09.293Z,33.90
2019-04-22T15:41:55.507Z,34.10
2019-04-22T15:44:15.743Z,34.00
2019-04-22T15:46:47.101Z,34.10
2019-04-22T15:49:20.153Z,34.10
2019-04-22T15:51:53.253Z,34.20
2019-04-22T15:54:25.621Z,34.30
2019-04-22T15:56:57.068Z,34.50
2019-04-22T15:59:44.995Z,34.50
2019-04-22T16:02:02.652Z,34.60
2019-04-22T16:04:34.718Z,34.90
2019-04-22T16:07:07.176Z,35.00
2019-04-22T16:09:39.499Z,35.60
2019-04-22T16:12:21.572Z,35.30
2019-04-22T16:14:50.992Z,35.40
2019-04-22T16:17:18.738Z,35.60
2019-04-22T16:19:50.922Z,35.60
2019-04-22T16:22:24.935Z,35.70
2019-04-22T16:25:22.890Z,35.60
2019-04-22T16:27:54.503Z,35.60
2019-04-22T16:30:27.774Z,35.80
2019-04-22T16:33:03.477Z,35.70
2019-04-22T16:35:35.251Z,35.70
2019-04-22T16:38:06.799Z,35.80
2019-04-22T16:40:38.921Z,35.90
2019-04-22T16:56:57.590Z,36.30
2019-04-22T16:59:30.738Z,36.20
2019-04-22T17:02:22.355Z,36.20
2019-04-22T17:05:18.087Z,36.10
2019-04-22T17:07:50.215Z,36.40
2019-04-22T17:10:21.821Z,36.30
2019-04-22T17:13:01.531Z,36.30
2019-04-22T17:15:27.030Z,36.20
2019-04-22T17:17:59.083Z,36.40
2019-04-22T17:20:31.253Z,36.30
2019-04-22T17:23:02.577Z,36.40
2019-04-22T17:25:34.458Z,36.50
2019-04-22T17:28:06.039Z,36.50
2019-04-22T17:30:37.251Z,36.60
2019-04-22T17:33:10.600Z,36.70
2019-04-22T17:35:44.870Z,37.30
2019-04-22T17:38:23.757Z,36.80
2019-04-22T17:41:04.254Z,36.80
2019-04-22T17:43:50.623Z,36.80
2019-04-22T17:46:24.760Z,37.00
2019-04-22T17:49:04.465Z,36.90
2019-04-22T17:51:38.213Z,37.00
2019-04-22T17:54:17.518Z,37.10
2019-04-22T17:56:43.395Z,37.00
2019-04-22T17:59:25.038Z,37.00
2019-04-22T18:01:49.208Z,37.20
2019-04-22T18:04:06.397Z,37.30
2019-04-22T18:07:03.798Z,37.20
2019-04-22T18:10:05.780Z,37.40
2019-04-22T18:12:16.298Z,37.50
2019-04-22T18:14:48.508Z,37.80
2019-04-22T18:17:14.072Z,37.90
2019-04-22T18:19:40.007Z,38.00
2019-04-22T18:22:07.511Z,38.20
2019-04-22T18:24:46.379Z,38.50
2019-04-22T18:27:34.267Z,38.90
2019-04-22T18:29:52.103Z,39.80
2019-04-22T18:32:24.081Z,40.40
2019-04-22T18:34:53.112Z,41.00
2019-04-22T18:37:36.650Z,41.40
2019-04-22T18:40:10.491Z,41.50
2019-04-22T18:42:44.491Z,41.90
2019-04-22T18:45:30.054Z,41.90
2019-04-22T18:47:44.289Z,42.20
2019-04-22T18:50:30.752Z,42.30
2019-04-22T18:53:25.341Z,42.50
2019-04-22T18:56:16.363Z,42.60
2019-04-22T18:58:38.286Z,43.00
2019-04-22T19:00:57.732Z,43.00
2019-04-22T19:03:32.215Z,43.00
2019-04-22T19:06:34.180Z,43.20
2019-04-22T19:09:08.700Z,43.20
2019-04-22T19:11:26.733Z,43.30
2019-04-22T19:14:07.499Z,43.60
2019-04-22T19:19:24.514Z,43.90
2019-04-22T19:21:44.512Z,44.40
2019-04-22T19:24:15.031Z,45.00
2019-04-22T19:26:55.992Z,45.40
2019-04-22T19:29:28.030Z,45.80
2019-04-22T19:31:55.863Z,46.10
2019-04-22T19:34:25.509Z,46.50
2019-04-22T19:37:02.101Z,46.50
2019-04-22T19:39:33.016Z,46.70
2019-04-22T19:42:16.764Z,47.10
2019-04-22T19:44:43.765Z,47.30
2019-04-22T19:47:24.032Z,47.40
2019-04-22T19:49:56.269Z,48.20
2019-04-22T19:52:24.566Z,47.50
2019-04-22T19:54:55.273Z,47.80
2019-04-22T19:57:22.435Z,47.90
2019-04-22T19:59:58.269Z,48.10
2019-04-22T20:03:03.614Z,48.30
2019-04-22T20:05:37.472Z,48.50
2019-04-22T20:08:17.783Z,48.60
2019-04-22T20:10:42.065Z,49.00
2019-04-22T20:13:28.878Z,49.20
2019-04-22T20:15:43.310Z,49.30
2019-04-22T20:20:58.506Z,49.70
2019-04-22T20:23:23.064Z,49.90
2019-04-22T20:25:58.009Z,50.10
2019-04-22T20:28:39.207Z,50.20
2019-04-22T20:31:08.165Z,50.10
2019-04-22T20:33:48.247Z,50.30
2019-04-22T20:36:26.814Z,50.20
2019-04-22T20:38:48.165Z,50.30
2019-04-22T20:41:17.351Z,51.10
2019-04-22T20:44:02.498Z,50.50
2019-04-22T20:46:23.830Z,50.60
2019-04-22T20:49:00.597Z,50.60
2019-04-22T20:51:44.512Z,50.70
2019-04-22T20:54:08.902Z,50.90
2019-04-22T20:56:38.571Z,51.00
2019-04-22T20:59:16.312Z,50.80
2019-04-22T21:01:43.218Z,51.00
2019-04-22T21:04:16.905Z,51.10
2019-04-22T21:06:53.044Z,51.20
2019-04-22T21:09:31.324Z,51.40
2019-04-22T21:12:00.085Z,51.50
2019-04-22T21:14:32.548Z,51.60
2019-04-22T21:17:08.078Z,52.20
2019-04-22T21:19:47.984Z,51.90
2019-04-22T21:22:18.170Z,51.70
2019-04-22T21:24:47.564Z,51.80
2019-04-22T21:27:40.799Z,51.90
2019-04-22T21:29:50.725Z,52.00
2019-04-22T21:32:31.275Z,51.90
2019-04-22T21:35:21.821Z,52.00
2019-04-22T21:37:37.785Z,51.90
2019-04-22T21:39:58.761Z,51.90
2019-04-22T21:42:51.706Z,52.00
2019-04-22T21:45:07.311Z,52.00
2019-04-22T21:47:57.204Z,52.00
2019-04-22T21:50:35.698Z,52.00
2019-04-22T21:52:59.486Z,52.10
2019-04-22T21:55:31.704Z,52.10
2019-04-22T21:58:09.385Z,52.20
2019-04-22T22:00:53.433Z,52.20
2019-04-22T22:03:19.250Z,52.40
2019-04-22T22:05:43.790Z,52.50
2019-04-22T22:08:28.667Z,52.70
2019-04-22T22:10:59.706Z,52.80
2019-04-22T22:13:31.924Z,53.00
2019-04-22T22:16:00.054Z,53.30
2019-04-22T22:18:30.073Z,53.40
2019-04-22T22:21:28.365Z,54.00
2019-04-22T22:23:43.691Z,54.00
2019-04-22T22:26:09.392Z,54.20
2019-04-22T22:29:06.620Z,54.40
2019-04-22T22:31:26.673Z,54.60
2019-04-22T22:33:51.511Z,54.80
2019-04-22T22:36:22.000Z,54.60
2019-04-22T22:38:51.985Z,54.70
2019-04-22T22:41:09.889Z,54.70
2019-04-22T22:43:45.385Z,54.80
2019-04-22T22:46:28.423Z,54.90
2019-04-22T22:49:09.838Z,54.90
2019-04-22T22:51:49.944Z,54.90
2019-04-22T22:54:21.540Z,55.00
2019-04-22T22:56:57.253Z,55.10
2019-04-22T22:59:23.757Z,55.00
2019-04-22T23:01:52.767Z,55.10
2019-04-22T23:04:29.525Z,55.10
2019-04-22T23:07:09.374Z,55.20
2019-04-22T23:09:30.840Z,55.20
2019-04-22T23:12:31.499Z,55.30
2019-04-22T23:14:37.162Z,55.20
2019-04-22T23:16:59.190Z,55.30
2019-04-22T23:19:24.016Z,55.30
2019-04-22T23:22:01.096Z,55.40
2019-04-22T23:24:50.212Z,55.50
2019-04-22T23:27:34.115Z,55.50
2019-04-22T23:30:17.008Z,55.60
2019-04-22T23:32:55.824Z,55.80
2019-04-22T23:35:52.877Z,55.90
2019-04-22T23:38:42.490Z,56.00
2019-04-22T23:41:39.208Z,56.00
2019-04-22T23:44:02.064Z,56.30
2019-04-22T23:46:46.472Z,56.30
2019-04-22T23:49:25.092Z,56.40
2019-04-22T23:52:10.070Z,56.50
2019-04-22T23:54:40.864Z,56.50
2019-04-22T23:57:04.650Z,56.50
2019-04-22T23:59:49.482Z,56.50
